Bossier City, LA (71111)

10:15 PM CDT on April 18, 2015 (GMT -0500)
Central Bossier | | Change Station
CLOSE
Current Station
Personal Weather Station
Location: Bossier City, LA
Elevation: 177 ft
Nearby Weather Stations
Active Advisory: Flood Warning

Elev 177 ft 32.52 °N, 93.71 °W | Updated 7 minutes ago

Clear
Clear
66.7 °F
Feels Like 66.7 °F
N
0.0
Wind Variable Wind from ENE

Today
High -- | Low -- °F
--% Chance of Precip.
Yesterday
High -- | Low -- °F
Precip. -- in
6:42 AM 7:46 PM
New Moon, 0% visible
Pressure 29.79 in
Visibility 10.0 miles
Clouds Clear
Dew Point 64 °F
Humidity 91%
Rainfall 0.11 in
Snow Depth Not available.
UV 0 out of 12
Pollen 1.00 out of 12
Air Quality Not available.
Flu Activity Local Activity
METAR KDTN 190253Z AUTO 00000KT 10SM CLR 18/17 A2979 RMK AO2 SLP086 T01830172 53003

More Conditions Fewer Conditions

Pressure 29.79 in
Visibility 10.0 miles
Clouds Clear
Dew Point 64 °F
Humidity 91%
Rainfall 0.11 in
Snow Depth Not available.
UV 0 out of 12
Pollen 1.00 out of 12
Air Quality Not available.
Flu Activity Local Activity
METAR KDTN 190253Z AUTO 00000KT 10SM CLR 18/17 A2979 RMK AO2 SLP086 T01830172 53003

More Conditions Fewer Conditions

10-Day Weather Forecast

Almanac

Astronomy

Apr. 18, 2015 Rise Set
Actual Time
Civil Twilight
Nautical Twilight
Astronomical Twilight
Moon
Length of Visible Light
Length of Day
Tomorrow will be .
, % of the Moon is Illuminated

Today's Extremes

State Highs State Lows

Community

WunderPhotos

Upload Photos

1,814,669 photos uploaded!

WunderBlogs® & News

Nearby

Air Quality

  Air Quality AQ Index Pollutant
Not available.

Snow Depth

Station Depth Elevation

Earthquake Activity

City Distance Mag. Time & Date
Minimum magnitude displayed is 2.5.

Coastal Water Temperatures

Place Temperature

Stations

Nearby Weather Stations

Station Location Temp. Windchill Dew Point Humidity Wind Precip. Elev Updated Type
                   
Flood Warning
Statement as of 11:25 AM CDT on April 18, 2015

The Flood Warning continues for
the Bodcau bayou at bayou Bodcau Lake.
* Until further notice... or until the warning is cancelled.
* At 10:00 am Saturday the stage was 181.7 feet.
* Minor flooding is occurring and minor flooding is forecast.
* Flood stage is 172.0 feet.
* Forecast... the river will continue to fall to a stage of 181.3 feet
by tomorrow morning.


Lat... Lon 3282 9351 3289 9344 3272 9346 3270 9351 3277 9351